Архив погоды в Махачкале

Метеограмма Махачкала
Среда, 25 Апреля
Время местн. Темп Ветер Видим Явления Облачность нижн/средн/верх Атм. давл. Влжн Точка росы ВНГО R Сост. почвы Tg s
Напр Скр Прв ур.ст ур.м изм
12:00 +12.3° В,Ю-В 5 - 20 км - ясно 766 765 -0.8 72% +7.5° более 2.5 км - - - -
09:00 +12.6° В,Ю-В 3 - 20 км - переменная облачность 767 765 0 69% +7.1° более 2.5 км - - - -
06:00 +5° З 1 - 20 км - ясно 767 765 -0.5 91% +3.6° более 2.5 км - Сухая (без трещин) - -
03:00 +8° В,Ю-В 1 - 20 км - ясно 767 765 -0.9 77% +4.3° более 2.5 км - - - -
00:00 +9.4° Ю-В 1 - 20 км - ясно 768 766 -0.8 82% +6.4° более 2.5 км - - - -
Вторник, 24 Апреля
Время местн. Темп Ветер Видим Явления Облачность нижн/средн/верх Атм. давл. Влжн Точка росы ВНГО R Сост. почвы Tg s
Напр Скр Прв ур.ст ур.м изм
21:00 +10.5° Ю-В 2 - 20 км - ясно 769 767 +0.8 84% +7.9° более 2.5 км - - - -
18:00 +11.1° Ю-В 3 - 20 км - переменная облачность 768 766 -0.2 80% +7.8° 1 км - - - -
15:00 +11.9° В,Ю-В 3 - 20 км - облачно с прояснениями 768 766 +0.3 78% +8.2° 1 км - - - -
12:00 +14.5° З,С-З 3 - 20 км - облачно 768 766 +0.8 55% +5.5° 1 км - - - -
09:00 +13.8° З,С-З 5 - 20 км небо без изменений {ливневые осадки} облачно 767 765 +1.4 57% +5.4° 1 км - - - -
06:00 +10.6° З,С-З 2 - 20 км небо без изменений {ливневые осадки} облачно 766 764 +0.9 74% +6.1° 1 км - Влажная (без луж) - -
03:00 +10.3° З 3 - 10 км слабый ливневый дождь облачно 765 763 -0.2 75% +6° 1 км - - - -
00:00 +10.4° З 4 - 10 км небо без изменений {ливневые осадки} облачно 765 763 +1.3 81% +7.3° 1 км - - - -
Понедельник, 23 Апреля
Время местн. Темп Ветер Видим Явления Облачность нижн/средн/верх Атм. давл. Влжн Точка росы ВНГО R Сост. почвы Tg s
Напр Скр Прв ур.ст ур.м изм
21:00 +13.2° З 4 - 10 км ливневый дождь преимущественно облачно 763 762 +2.9 70% +7.9° 1 км - - - -
18:00 +13° Ю-В 1 - 10 км - облачно с прояснениями 761 759 0 73% +8.3° 1 км - - - -
15:00 +19.3° С-З 2 - 20 км - преимущественно облачно 761 759 -0.2 33% +2.8° 1 км - - - -
12:00 +19° З,С-З 6 11 20 км - преимущественно облачно 761 759 -0.5 33% +2.4° 1 км - - - -
09:00 +15.9° З,С-З 4 - 20 км - преимущественно облачно 761 760 +0.6 47% +4.7° 1 км - - - -
06:00 +14.2° З 2 - 20 км - облачно 761 759 +0.6 57% +5.9° 1 км 259 Сухая (без трещин) +10° -
03:00 +11.7° З,Ю-З 2 - 20 км - облачно 760 758 +0.9 68% +6° 1 км - - - -
00:00 +12.8° З 3 - 20 км - облачно с прояснениями 760 759 +0.9 64% +6.2° более 2.5 км - - - -
Воскресенье, 22 Апреля
Время местн. Темп Ветер Видим Явления Облачность нижн/средн/верх Атм. давл. Влжн Точка росы ВНГО R Сост. почвы Tg s
Напр Скр Прв ур.ст ур.м изм
21:00 +12.5° Ю 1 - 20 км - переменная облачность 759 758 +0.8 70% +7.2° более 2.5 км - - - -
18:00 +14.8° Ю-В 3 - 20 км - переменная облачность 759 757 -0.1 55% +5.9° 1 км - - - -
15:00 +14.1° В,Ю-В 3 - 20 км - ясно 759 757 -0.9 69% +8.5° более 2.5 км - - - -
12:00 +14.5° В,Ю-В 4 - 20 км - переменная облачность 760 758 -1.7 66% +8.2° 1 км - - - -
09:00 +14.6° В,Ю-В 2 - 20 км - ясно 761 760 -0.4 62% +7.5° более 2.5 км - - - -